sensor_id;sensor_type;location;lat;lon;timestamp;pressure;altitude;pressure_sealevel;temperature
74321;BMP280;62738;45.772;4.804;2023-02-01T00:01:05;100944.84;;;8.93
74321;BMP280;62738;45.772;4.804;2023-02-01T00:03:32;100947.53;;;8.80
74321;BMP280;62738;45.772;4.804;2023-02-01T00:05:59;100947.53;;;8.80
74321;BMP280;62738;45.772;4.804;2023-02-01T00:08:26;100939.88;;;8.86
74321;BMP280;62738;45.772;4.804;2023-02-01T00:11:00;100939.44;;;8.82
74321;BMP280;62738;45.772;4.804;2023-02-01T00:13:29;100953.19;;;8.68
74321;BMP280;62738;45.772;4.804;2023-02-01T00:18:32;100953.88;;;8.50
74321;BMP280;62738;45.772;4.804;2023-02-01T00:20:59;100950.50;;;8.57
74321;BMP280;62738;45.772;4.804;2023-02-01T00:23:26;100951.44;;;8.90
74321;BMP280;62738;45.772;4.804;2023-02-01T00:25:53;100958.22;;;8.89
74321;BMP280;62738;45.772;4.804;2023-02-01T00:28:19;100955.56;;;9.02
74321;BMP280;62738;45.772;4.804;2023-02-01T00:30:46;100950.59;;;8.95
74321;BMP280;62738;45.772;4.804;2023-02-01T00:33:12;100949.66;;;9.11
74321;BMP280;62738;45.772;4.804;2023-02-01T00:35:39;100948.53;;;9.01
74321;BMP280;62738;45.772;4.804;2023-02-01T00:38:06;100945.34;;;8.91
74321;BMP280;62738;45.772;4.804;2023-02-01T00:40:32;100945.66;;;8.88
74321;BMP280;62738;45.772;4.804;2023-02-01T00:42:59;100949.16;;;8.69
74321;BMP280;62738;45.772;4.804;2023-02-01T00:45:25;100948.66;;;8.90
74321;BMP280;62738;45.772;4.804;2023-02-01T00:47:52;100956.03;;;9.06
74321;BMP280;62738;45.772;4.804;2023-02-01T00:50:19;100947.81;;;9.38
74321;BMP280;62738;45.772;4.804;2023-02-01T00:52:46;100948.34;;;8.93
74321;BMP280;62738;45.772;4.804;2023-02-01T00:55:13;100956.50;;;8.86
74321;BMP280;62738;45.772;4.804;2023-02-01T00:57:39;100947.31;;;8.78
74321;BMP280;62738;45.772;4.804;2023-02-01T01:00:06;100949.31;;;8.77
74321;BMP280;62738;45.772;4.804;2023-02-01T01:02:33;100942.09;;;8.68
74321;BMP280;62738;45.772;4.804;2023-02-01T01:05:00;100945.13;;;8.70
74321;BMP280;62738;45.772;4.804;2023-02-01T01:07:27;100940.56;;;8.92
74321;BMP280;62738;45.772;4.804;2023-02-01T01:09:54;100943.13;;;8.90
74321;BMP280;62738;45.772;4.804;2023-02-01T01:12:21;100940.84;;;8.69
74321;BMP280;62738;45.772;4.804;2023-02-01T01:14:48;100949.16;;;8.69
74321;BMP280;62738;45.772;4.804;2023-02-01T01:17:14;100944.91;;;8.63
74321;BMP280;62738;45.772;4.804;2023-02-01T01:19:41;100948.75;;;8.60
74321;BMP280;62738;45.772;4.804;2023-02-01T01:22:07;100943.84;;;8.47
74321;BMP280;62738;45.772;4.804;2023-02-01T01:24:34;100947.97;;;8.84
74321;BMP280;62738;45.772;4.804;2023-02-01T01:27:01;100953.84;;;9.18
74321;BMP280;62738;45.772;4.804;2023-02-01T01:29:27;100941.94;;;8.85
74321;BMP280;62738;45.772;4.804;2023-02-01T01:31:54;100948.22;;;8.61
74321;BMP280;62738;45.772;4.804;2023-02-01T01:34:20;100947.09;;;8.51
74321;BMP280;62738;45.772;4.804;2023-02-01T01:36:47;100954.78;;;8.58
74321;BMP280;62738;45.772;4.804;2023-02-01T01:39:14;100950.66;;;8.70
74321;BMP280;62738;45.772;4.804;2023-02-01T01:41:40;100949.69;;;8.62
74321;BMP280;62738;45.772;4.804;2023-02-01T01:47:12;100950.94;;;8.67
74321;BMP280;62738;45.772;4.804;2023-02-01T01:49:40;100943.41;;;8.62
74321;BMP280;62738;45.772;4.804;2023-02-01T01:52:07;100950.41;;;8.68
74321;BMP280;62738;45.772;4.804;2023-02-01T01:54:39;100941.53;;;8.76
74321;BMP280;62738;45.772;4.804;2023-02-01T01:57:11;100943.53;;;8.75
74321;BMP280;62738;45.772;4.804;2023-02-01T01:59:43;100949.94;;;8.64
74321;BMP280;62738;45.772;4.804;2023-02-01T02:02:13;100946.03;;;8.54
74321;BMP280;62738;45.772;4.804;2023-02-01T02:04:40;100952.63;;;8.51
74321;BMP280;62738;45.772;4.804;2023-02-01T02:07:21;100945.44;;;8.37
74321;BMP280;62738;45.772;4.804;2023-02-01T02:09:48;100943.94;;;8.36
74321;BMP280;62738;45.772;4.804;2023-02-01T02:12:26;100950.44;;;8.63
74321;BMP280;62738;45.772;4.804;2023-02-01T02:14:53;100945.25;;;8.29
74321;BMP280;62738;45.772;4.804;2023-02-01T02:17:30;100946.22;;;8.08
74321;BMP280;62738;45.772;4.804;2023-02-01T02:30:52;100936.50;;;8.25
74321;BMP280;62738;45.772;4.804;2023-02-01T02:36:17;100918.47;;;8.19
74321;BMP280;62738;45.772;4.804;2023-02-01T02:42:08;100916.03;;;8.10
74321;BMP280;62738;45.772;4.804;2023-02-01T02:48:19;100906.16;;;7.90
74321;BMP280;62738;45.772;4.804;2023-02-01T02:54:10;100906.66;;;7.88
74321;BMP280;62738;45.772;4.804;2023-02-01T02:56:59;100894.47;;;7.73
74321;BMP280;62738;45.772;4.804;2023-02-01T02:59:47;100899.88;;;7.54
74321;BMP280;62738;45.772;4.804;2023-02-01T03:02:33;100903.38;;;7.08
74321;BMP280;62738;45.772;4.804;2023-02-01T03:05:19;100903.09;;;7.11
74321;BMP280;62738;45.772;4.804;2023-02-01T03:07:55;100912.13;;;7.12
74321;BMP280;62738;45.772;4.804;2023-02-01T03:10:27;100915.00;;;6.90
74321;BMP280;62738;45.772;4.804;2023-02-01T03:13:35;100914.47;;;7.02
74321;BMP280;62738;45.772;4.804;2023-02-01T03:16:17;100917.50;;;6.93
74321;BMP280;62738;45.772;4.804;2023-02-01T03:18:55;100912.16;;;7.06
74321;BMP280;62738;45.772;4.804;2023-02-01T03:21:29;100922.97;;;7.04
74321;BMP280;62738;45.772;4.804;2023-02-01T03:24:00;100920.66;;;7.14
74321;BMP280;62738;45.772;4.804;2023-02-01T03:26:30;100919.50;;;7.45
74321;BMP280;62738;45.772;4.804;2023-02-01T03:29:02;100917.78;;;7.42
74321;BMP280;62738;45.772;4.804;2023-02-01T03:31:32;100915.00;;;7.42
74321;BMP280;62738;45.772;4.804;2023-02-01T03:33:59;100912.97;;;7.48
74321;BMP280;62738;45.772;4.804;2023-02-01T03:39:26;100910.31;;;7.67
74321;BMP280;62738;45.772;4.804;2023-02-01T03:41:56;100916.34;;;7.30
74321;BMP280;62738;45.772;4.804;2023-02-01T03:44:31;100919.22;;;6.96
74321;BMP280;62738;45.772;4.804;2023-02-01T03:47:13;100909.50;;;7.36
74321;BMP280;62738;45.772;4.804;2023-02-01T03:49:45;100910.19;;;7.48
74321;BMP280;62738;45.772;4.804;2023-02-01T03:52:22;100920.75;;;7.44
74321;BMP280;62738;45.772;4.804;2023-02-01T03:54:51;100919.22;;;7.48
74321;BMP280;62738;45.772;4.804;2023-02-01T03:57:24;100911.50;;;7.41
74321;BMP280;62738;45.772;4.804;2023-02-01T03:59:52;100913.69;;;7.54
74321;BMP280;62738;45.772;4.804;2023-02-01T04:02:19;100920.38;;;7.23
74321;BMP280;62738;45.772;4.804;2023-02-01T04:04:46;100914.78;;;7.34
74321;BMP280;62738;45.772;4.804;2023-02-01T04:07:12;100916.25;;;7.41
74321;BMP280;62738;45.772;4.804;2023-02-01T04:09:39;100926.13;;;7.31
74321;BMP280;62738;45.772;4.804;2023-02-01T04:12:05;100925.13;;;7.23
74321;BMP280;62738;45.772;4.804;2023-02-01T04:14:32;100929.41;;;7.24
74321;BMP280;62738;45.772;4.804;2023-02-01T04:16:59;100929.16;;;7.22
74321;BMP280;62738;45.772;4.804;2023-02-01T04:19:25;100918.44;;;7.07
74321;BMP280;62738;45.772;4.804;2023-02-01T04:21:52;100927.75;;;6.98
74321;BMP280;62738;45.772;4.804;2023-02-01T04:24:18;100924.78;;;6.91
74321;BMP280;62738;45.772;4.804;2023-02-01T04:26:45;100926.72;;;7.07
74321;BMP280;62738;45.772;4.804;2023-02-01T04:29:12;100936.75;;;7.04
74321;BMP280;62738;45.772;4.804;2023-02-01T04:31:38;100934.56;;;6.86
74321;BMP280;62738;45.772;4.804;2023-02-01T04:34:05;100941.06;;;6.94
74321;BMP280;62738;45.772;4.804;2023-02-01T04:36:32;100938.06;;;6.87
74321;BMP280;62738;45.772;4.804;2023-02-01T04:38:58;100943.81;;;7.00
74321;BMP280;62738;45.772;4.804;2023-02-01T04:41:25;100948.56;;;6.99
74321;BMP280;62738;45.772;4.804;2023-02-01T04:43:51;100941.56;;;6.98
74321;BMP280;62738;45.772;4.804;2023-02-01T04:46:18;100944.84;;;6.86
74321;BMP280;62738;45.772;4.804;2023-02-01T04:48:45;100952.34;;;6.85
74321;BMP280;62738;45.772;4.804;2023-02-01T04:51:12;100961.56;;;7.10
74321;BMP280;62738;45.772;4.804;2023-02-01T04:53:39;100960.81;;;7.15
74321;BMP280;62738;45.772;4.804;2023-02-01T04:56:06;100953.28;;;7.15
74321;BMP280;62738;45.772;4.804;2023-02-01T04:58:32;100948.81;;;7.01
74321;BMP280;62738;45.772;4.804;2023-02-01T05:01:02;100947.75;;;7.15
74321;BMP280;62738;45.772;4.804;2023-02-01T05:03:31;100953.53;;;7.18
74321;BMP280;62738;45.772;4.804;2023-02-01T05:05:58;100951.78;;;7.14
74321;BMP280;62738;45.772;4.804;2023-02-01T05:08:26;100949.56;;;7.02
74321;BMP280;62738;45.772;4.804;2023-02-01T05:10:53;100945.00;;;7.10
74321;BMP280;62738;45.772;4.804;2023-02-01T05:13:20;100949.28;;;7.05
74321;BMP280;62738;45.772;4.804;2023-02-01T05:16:05;100944.75;;;7.13
74321;BMP280;62738;45.772;4.804;2023-02-01T05:18:32;100946.00;;;7.18
74321;BMP280;62738;45.772;4.804;2023-02-01T05:20:58;100943.69;;;7.28
74321;BMP280;62738;45.772;4.804;2023-02-01T05:23:25;100953.63;;;7.53
74321;BMP280;62738;45.772;4.804;2023-02-01T05:25:51;100942.84;;;7.44
74321;BMP280;62738;45.772;4.804;2023-02-01T05:28:18;100952.22;;;7.30
74321;BMP280;62738;45.772;4.804;2023-02-01T05:30:44;100953.25;;;7.21
74321;BMP280;62738;45.772;4.804;2023-02-01T05:33:11;100945.22;;;7.29
74321;BMP280;62738;45.772;4.804;2023-02-01T05:35:38;100947.97;;;7.29
74321;BMP280;62738;45.772;4.804;2023-02-01T05:38:04;100953.53;;;7.18
74321;BMP280;62738;45.772;4.804;2023-02-01T05:40:31;100957.78;;;7.19
74321;BMP280;62738;45.772;4.804;2023-02-01T05:42:58;100958.25;;;7.28
74321;BMP280;62738;45.772;4.804;2023-02-01T05:45:24;100952.41;;;7.37
74321;BMP280;62738;45.772;4.804;2023-02-01T05:47:51;100956.38;;;7.47
74321;BMP280;62738;45.772;4.804;2023-02-01T05:50:17;100956.72;;;7.33
74321;BMP280;62738;45.772;4.804;2023-02-01T05:52:44;100961.72;;;7.34
74321;BMP280;62738;45.772;4.804;2023-02-01T05:55:11;100957.19;;;7.37
74321;BMP280;62738;45.772;4.804;2023-02-01T05:57:37;100965.88;;;7.58
74321;BMP280;62738;45.772;4.804;2023-02-01T06:00:04;100963.22;;;7.41
74321;BMP280;62738;45.772;4.804;2023-02-01T06:02:31;100967.19;;;7.51
74321;BMP280;62738;45.772;4.804;2023-02-01T06:04:58;100967.69;;;7.44
74321;BMP280;62738;45.772;4.804;2023-02-01T06:07:24;100974.22;;;7.46
74321;BMP280;62738;45.772;4.804;2023-02-01T06:09:54;100977.25;;;7.37
74321;BMP280;62738;45.772;4.804;2023-02-01T06:12:21;100975.06;;;7.25
74321;BMP280;62738;45.772;4.804;2023-02-01T06:14:47;100978.25;;;7.40
74321;BMP280;62738;45.772;4.804;2023-02-01T06:17:14;100982.09;;;7.26
74321;BMP280;62738;45.772;4.804;2023-02-01T06:19:41;100981.53;;;7.38
74321;BMP280;62738;45.772;4.804;2023-02-01T06:22:07;100992.53;;;7.44
74321;BMP280;62738;45.772;4.804;2023-02-01T06:24:34;100987.50;;;7.53
74321;BMP280;62738;45.772;4.804;2023-02-01T06:27:00;101004.03;;;7.59
74321;BMP280;62738;45.772;4.804;2023-02-01T06:29:27;100998.25;;;7.63
74321;BMP280;62738;45.772;4.804;2023-02-01T06:31:54;101000.66;;;7.83
74321;BMP280;62738;45.772;4.804;2023-02-01T06:34:20;100997.97;;;7.66
74321;BMP280;62738;45.772;4.804;2023-02-01T06:36:49;101011.38;;;7.51
74321;BMP280;62738;45.772;4.804;2023-02-01T06:39:16;101012.41;;;7.37
74321;BMP280;62738;45.772;4.804;2023-02-01T06:41:46;101002.38;;;7.34
74321;BMP280;62738;45.772;4.804;2023-02-01T06:44:13;101003.59;;;7.44
74321;BMP280;62738;45.772;4.804;2023-02-01T06:46:40;101004.47;;;7.69
74321;BMP280;62738;45.772;4.804;2023-02-01T06:49:06;101008.38;;;7.38
74321;BMP280;62738;45.772;4.804;2023-02-01T06:51:34;101008.97;;;7.72
74321;BMP280;62738;45.772;4.804;2023-02-01T06:54:01;101010.00;;;7.69
74321;BMP280;62738;45.772;4.804;2023-02-01T06:56:27;101004.59;;;7.93
74321;BMP280;62738;45.772;4.804;2023-02-01T06:58:54;101006.69;;;7.81
74321;BMP280;62738;45.772;4.804;2023-02-01T07:01:21;101017.47;;;7.79
74321;BMP280;62738;45.772;4.804;2023-02-01T07:03:49;101008.69;;;7.81
74321;BMP280;62738;45.772;4.804;2023-02-01T07:06:17;101005.47;;;7.77
74321;BMP280;62738;45.772;4.804;2023-02-01T07:08:44;101011.25;;;7.68
74321;BMP280;62738;45.772;4.804;2023-02-01T07:11:12;101017.97;;;7.83
74321;BMP280;62738;45.772;4.804;2023-02-01T07:13:39;101032.50;;;7.89
74321;BMP280;62738;45.772;4.804;2023-02-01T07:16:10;101037.31;;;7.83
74321;BMP280;62738;45.772;4.804;2023-02-01T07:18:37;101043.56;;;7.89
74321;BMP280;62738;45.772;4.804;2023-02-01T07:21:04;101045.31;;;7.92
74321;BMP280;62738;45.772;4.804;2023-02-01T07:23:31;101044.22;;;8.07
74321;BMP280;62738;45.772;4.804;2023-02-01T07:26:00;101045.78;;;7.97
74321;BMP280;62738;45.772;4.804;2023-02-01T07:28:28;101059.91;;;7.87
74321;BMP280;62738;45.772;4.804;2023-02-01T07:31:02;101062.06;;;8.06
74321;BMP280;62738;45.772;4.804;2023-02-01T07:33:29;101060.50;;;8.16
74321;BMP280;62738;45.772;4.804;2023-02-01T07:35:55;101065.78;;;8.14
74321;BMP280;62738;45.772;4.804;2023-02-01T07:38:22;101061.75;;;8.15
74321;BMP280;62738;45.772;4.804;2023-02-01T07:40:50;101062.59;;;8.34
74321;BMP280;62738;45.772;4.804;2023-02-01T07:43:16;101045.47;;;8.41
74321;BMP280;62738;45.772;4.804;2023-02-01T07:45:43;101030.72;;;8.27
74321;BMP280;62738;45.772;4.804;2023-02-01T07:48:09;101047.06;;;8.31
74321;BMP280;62738;45.772;4.804;2023-02-01T07:50:36;101024.13;;;8.36
74321;BMP280;62738;45.772;4.804;2023-02-01T07:53:02;101017.66;;;8.28
74321;BMP280;62738;45.772;4.804;2023-02-01T07:55:29;101021.38;;;8.36
74321;BMP280;62738;45.772;4.804;2023-02-01T07:57:57;101027.44;;;8.89
74321;BMP280;62738;45.772;4.804;2023-02-01T08:00:27;101022.63;;;8.65
74321;BMP280;62738;45.772;4.804;2023-02-01T08:03:12;101026.75;;;8.53
74321;BMP280;62738;45.772;4.804;2023-02-01T08:05:42;101023.25;;;8.52
74321;BMP280;62738;45.772;4.804;2023-02-01T08:08:08;101026.09;;;8.71
74321;BMP280;62738;45.772;4.804;2023-02-01T08:10:35;101033.75;;;8.59
74321;BMP280;62738;45.772;4.804;2023-02-01T08:13:02;101039.00;;;8.87
74321;BMP280;62738;45.772;4.804;2023-02-01T08:15:29;101049.88;;;8.85
74321;BMP280;62738;45.772;4.804;2023-02-01T08:17:56;101050.84;;;8.88
74321;BMP280;62738;45.772;4.804;2023-02-01T08:20:23;101056.78;;;8.97
74321;BMP280;62738;45.772;4.804;2023-02-01T08:22:50;101048.41;;;9.03
74321;BMP280;62738;45.772;4.804;2023-02-01T08:25:20;101038.34;;;8.81
74321;BMP280;62738;45.772;4.804;2023-02-01T08:27:47;101053.59;;;8.88
74321;BMP280;62738;45.772;4.804;2023-02-01T08:30:14;101041.53;;;8.61
74321;BMP280;62738;45.772;4.804;2023-02-01T08:32:40;101038.44;;;8.70
74321;BMP280;62738;45.772;4.804;2023-02-01T08:35:08;101039.59;;;8.80
74321;BMP280;62738;45.772;4.804;2023-02-01T08:37:35;101038.13;;;8.74
74321;BMP280;62738;45.772;4.804;2023-02-01T08:40:02;101031.31;;;8.80
74321;BMP280;62738;45.772;4.804;2023-02-01T08:42:29;101040.41;;;8.99
74321;BMP280;62738;45.772;4.804;2023-02-01T08:45:29;101039.00;;;8.87
74321;BMP280;62738;45.772;4.804;2023-02-01T08:47:56;101061.00;;;8.80
74321;BMP280;62738;45.772;4.804;2023-02-01T08:50:24;101071.63;;;9.00
74321;BMP280;62738;45.772;4.804;2023-02-01T08:52:52;101067.69;;;8.90
74321;BMP280;62738;45.772;4.804;2023-02-01T08:55:19;101078.44;;;8.93
74321;BMP280;62738;45.772;4.804;2023-02-01T08:57:46;101088.88;;;8.82
74321;BMP280;62738;45.772;4.804;2023-02-01T09:00:15;101088.31;;;8.89
74321;BMP280;62738;45.772;4.804;2023-02-01T09:02:43;101087.88;;;8.85
74321;BMP280;62738;45.772;4.804;2023-02-01T09:05:10;101100.28;;;8.73
74321;BMP280;62738;45.772;4.804;2023-02-01T09:07:37;101095.41;;;8.84
74321;BMP280;62738;45.772;4.804;2023-02-01T09:10:05;101086.72;;;8.99
74321;BMP280;62738;45.772;4.804;2023-02-01T09:12:32;101086.91;;;9.06
74321;BMP280;62738;45.772;4.804;2023-02-01T09:14:59;101087.41;;;9.05
74321;BMP280;62738;45.772;4.804;2023-02-01T09:17:26;101090.47;;;9.26
74321;BMP280;62738;45.772;4.804;2023-02-01T09:19:54;101105.63;;;9.43
74321;BMP280;62738;45.772;4.804;2023-02-01T09:22:21;101104.25;;;9.31
74321;BMP280;62738;45.772;4.804;2023-02-01T09:24:48;101111.00;;;9.36
74321;BMP280;62738;45.772;4.804;2023-02-01T09:27:14;101120.00;;;9.42
74321;BMP280;62738;45.772;4.804;2023-02-01T09:29:41;101124.97;;;8.65
74321;BMP280;62738;45.772;4.804;2023-02-01T09:32:08;101127.72;;;8.70
74321;BMP280;62738;45.772;4.804;2023-02-01T09:34:35;101130.53;;;8.95
74321;BMP280;62738;45.772;4.804;2023-02-01T09:37:02;101144.69;;;8.86
74321;BMP280;62738;45.772;4.804;2023-02-01T09:39:29;101146.66;;;8.61
74321;BMP280;62738;45.772;4.804;2023-02-01T09:45:10;101140.59;;;8.62
74321;BMP280;62738;45.772;4.804;2023-02-01T09:47:40;101137.81;;;8.62
74321;BMP280;62738;45.772;4.804;2023-02-01T09:50:15;101141.03;;;8.72
74321;BMP280;62738;45.772;4.804;2023-02-01T09:52:55;101136.31;;;8.91
74321;BMP280;62738;45.772;4.804;2023-02-01T09:55:36;101139.81;;;8.97
74321;BMP280;62738;45.772;4.804;2023-02-01T09:58:14;101146.19;;;9.17
74321;BMP280;62738;45.772;4.804;2023-02-01T10:00:50;101150.25;;;9.16
74321;BMP280;62738;45.772;4.804;2023-02-01T10:03:17;101153.34;;;9.55
74321;BMP280;62738;45.772;4.804;2023-02-01T10:09:03;101165.59;;;9.84
74321;BMP280;62738;45.772;4.804;2023-02-01T10:11:52;101173.75;;;9.76
74321;BMP280;62738;45.772;4.804;2023-02-01T10:14:35;101167.56;;;9.46
74321;BMP280;62738;45.772;4.804;2023-02-01T10:22:41;101168.81;;;9.88
74321;BMP280;62738;45.772;4.804;2023-02-01T10:25:36;101169.75;;;9.96
74321;BMP280;62738;45.772;4.804;2023-02-01T10:28:04;101151.31;;;9.99
74321;BMP280;62738;45.772;4.804;2023-02-01T10:30:39;101157.75;;;10.25
74321;BMP280;62738;45.772;4.804;2023-02-01T10:33:27;101155.94;;;10.28
74321;BMP280;62738;45.772;4.804;2023-02-01T10:36:04;101141.09;;;10.25
74321;BMP280;62738;45.772;4.804;2023-02-01T10:38:33;101139.06;;;10.26
74321;BMP280;62738;45.772;4.804;2023-02-01T10:41:20;101147.84;;;10.30
74321;BMP280;62738;45.772;4.804;2023-02-01T10:43:53;101142.72;;;9.78
74321;BMP280;62738;45.772;4.804;2023-02-01T10:46:22;101140.63;;;9.84
74321;BMP280;62738;45.772;4.804;2023-02-01T10:48:50;101138.63;;;10.03
74321;BMP280;62738;45.772;4.804;2023-02-01T10:51:36;101133.00;;;9.71
74321;BMP280;62738;45.772;4.804;2023-02-01T10:54:33;101118.84;;;9.75
74321;BMP280;62738;45.772;4.804;2023-02-01T10:56:59;101112.66;;;10.06
74321;BMP280;62738;45.772;4.804;2023-02-01T10:59:28;101110.50;;;10.12
74321;BMP280;62738;45.772;4.804;2023-02-01T11:02:00;101112.81;;;10.59
74321;BMP280;62738;45.772;4.804;2023-02-01T11:04:33;101108.56;;;10.58
74321;BMP280;62738;45.772;4.804;2023-02-01T11:07:20;101097.09;;;10.48
74321;BMP280;62738;45.772;4.804;2023-02-01T11:09:51;101103.44;;;10.75
74321;BMP280;62738;45.772;4.804;2023-02-01T11:12:36;101107.50;;;10.29
74321;BMP280;62738;45.772;4.804;2023-02-01T11:15:22;101106.75;;;10.28
74321;BMP280;62738;45.772;4.804;2023-02-01T11:17:51;101100.41;;;10.47
74321;BMP280;62738;45.772;4.804;2023-02-01T11:22:58;101099.09;;;10.80
74321;BMP280;62738;45.772;4.804;2023-02-01T11:25:25;101095.81;;;10.81
74321;BMP280;62738;45.772;4.804;2023-02-01T11:27:54;101079.38;;;10.83
74321;BMP280;62738;45.772;4.804;2023-02-01T11:32:57;101069.44;;;11.14
74321;BMP280;62738;45.772;4.804;2023-02-01T11:35:24;101061.47;;;11.31
74321;BMP280;62738;45.772;4.804;2023-02-01T11:37:56;101054.75;;;11.40
74321;BMP280;62738;45.772;4.804;2023-02-01T11:40:37;101070.41;;;10.90
74321;BMP280;62738;45.772;4.804;2023-02-01T11:43:08;101061.38;;;10.58
74321;BMP280;62738;45.772;4.804;2023-02-01T11:45:39;101066.13;;;10.31
74321;BMP280;62738;45.772;4.804;2023-02-01T11:48:10;101070.91;;;10.31
74321;BMP280;62738;45.772;4.804;2023-02-01T11:51:07;101073.06;;;10.38
74321;BMP280;62738;45.772;4.804;2023-02-01T11:56:39;101056.81;;;10.28
74321;BMP280;62738;45.772;4.804;2023-02-01T12:07:35;101042.69;;;10.13
74321;BMP280;62738;45.772;4.804;2023-02-01T12:24:05;101023.16;;;11.03
74321;BMP280;62738;45.772;4.804;2023-02-01T12:26:44;101015.91;;;10.87
74321;BMP280;62738;45.772;4.804;2023-02-01T12:41:17;101034.59;;;11.00
74321;BMP280;62738;45.772;4.804;2023-02-01T12:49:22;101029.44;;;10.38
74321;BMP280;62738;45.772;4.804;2023-02-01T12:52:01;101021.41;;;10.35
74321;BMP280;62738;45.772;4.804;2023-02-01T12:54:36;101027.31;;;10.12
74321;BMP280;62738;45.772;4.804;2023-02-01T12:57:09;101023.41;;;10.21
74321;BMP280;62738;45.772;4.804;2023-02-01T12:59:51;101025.41;;;10.07
74321;BMP280;62738;45.772;4.804;2023-02-01T13:02:35;101018.19;;;10.17
74321;BMP280;62738;45.772;4.804;2023-02-01T13:05:18;101016.47;;;10.27
74321;BMP280;62738;45.772;4.804;2023-02-01T13:07:48;101011.47;;;10.26
74321;BMP280;62738;45.772;4.804;2023-02-01T13:10:24;100998.78;;;10.31
74321;BMP280;62738;45.772;4.804;2023-02-01T13:12:59;101005.19;;;10.39
74321;BMP280;62738;45.772;4.804;2023-02-01T13:15:33;100997.94;;;10.36
74321;BMP280;62738;45.772;4.804;2023-02-01T13:18:04;100989.69;;;10.17
74321;BMP280;62738;45.772;4.804;2023-02-01T13:20:41;100988.84;;;10.22
74321;BMP280;62738;45.772;4.804;2023-02-01T13:23:29;100990.69;;;10.33
74321;BMP280;62738;45.772;4.804;2023-02-01T13:25:58;100988.97;;;10.43
74321;BMP280;62738;45.772;4.804;2023-02-01T13:28:32;101001.50;;;10.49
74321;BMP280;62738;45.772;4.804;2023-02-01T13:36:37;100980.81;;;10.05
74321;BMP280;62738;45.772;4.804;2023-02-01T13:39:39;100983.41;;;10.16
74321;BMP280;62738;45.772;4.804;2023-02-01T13:42:22;100979.47;;;10.25
74321;BMP280;62738;45.772;4.804;2023-02-01T13:44:52;100982.84;;;10.05
74321;BMP280;62738;45.772;4.804;2023-02-01T13:47:27;100977.16;;;9.97
74321;BMP280;62738;45.772;4.804;2023-02-01T13:49:58;100980.00;;;9.92
74321;BMP280;62738;45.772;4.804;2023-02-01T13:52:36;100976.19;;;9.95
74321;BMP280;62738;45.772;4.804;2023-02-01T13:55:28;100980.19;;;9.80
74321;BMP280;62738;45.772;4.804;2023-02-01T13:58:03;100975.44;;;9.94
74321;BMP280;62738;45.772;4.804;2023-02-01T14:00:33;100984.75;;;10.10
74321;BMP280;62738;45.772;4.804;2023-02-01T14:10:50;100967.69;;;10.06
74321;BMP280;62738;45.772;4.804;2023-02-01T14:13:35;100967.78;;;10.00
74321;BMP280;62738;45.772;4.804;2023-02-01T14:26:19;100982.13;;;10.17
74321;BMP280;62738;45.772;4.804;2023-02-01T14:29:02;100977.38;;;9.99
74321;BMP280;62738;45.772;4.804;2023-02-01T14:31:34;100973.28;;;9.87
74321;BMP280;62738;45.772;4.804;2023-02-01T14:34:11;100969.06;;;10.12
74321;BMP280;62738;45.772;4.804;2023-02-01T14:36:56;100968.56;;;10.14
74321;BMP280;62738;45.772;4.804;2023-02-01T14:39:49;100964.34;;;9.94
74321;BMP280;62738;45.772;4.804;2023-02-01T14:42:39;100972.19;;;10.22
74321;BMP280;62738;45.772;4.804;2023-02-01T14:47:49;100970.88;;;9.97
74321;BMP280;62738;45.772;4.804;2023-02-01T14:50:32;100971.34;;;9.82
74321;BMP280;62738;45.772;4.804;2023-02-01T14:55:42;100974.72;;;9.75
74321;BMP280;62738;45.772;4.804;2023-02-01T14:58:29;100976.94;;;9.95
74321;BMP280;62738;45.772;4.804;2023-02-01T15:01:04;100987.16;;;9.68
74321;BMP280;62738;45.772;4.804;2023-02-01T15:06:38;100980.13;;;10.31
74321;BMP280;62738;45.772;4.804;2023-02-01T15:14:32;100981.59;;;9.87
74321;BMP280;62738;45.772;4.804;2023-02-01T15:16:59;100985.03;;;9.93
74321;BMP280;62738;45.772;4.804;2023-02-01T15:19:29;100986.47;;;10.13
74321;BMP280;62738;45.772;4.804;2023-02-01T15:21:57;100988.47;;;10.12
74321;BMP280;62738;45.772;4.804;2023-02-01T15:24:27;101006.78;;;9.89
74321;BMP280;62738;45.772;4.804;2023-02-01T15:26:55;101009.53;;;9.89
74321;BMP280;62738;45.772;4.804;2023-02-01T15:29:23;101013.63;;;10.01
74321;BMP280;62738;45.772;4.804;2023-02-01T15:31:54;101009.38;;;10.00
74321;BMP280;62738;45.772;4.804;2023-02-01T15:34:21;101006.00;;;10.07
74321;BMP280;62738;45.772;4.804;2023-02-01T15:36:48;101003.75;;;10.06
74321;BMP280;62738;45.772;4.804;2023-02-01T15:39:28;100999.47;;;10.05
74321;BMP280;62738;45.772;4.804;2023-02-01T15:42:01;101011.47;;;9.94
74321;BMP280;62738;45.772;4.804;2023-02-01T15:44:40;101027.34;;;9.94
74321;BMP280;62738;45.772;4.804;2023-02-01T15:47:18;101026.22;;;10.02
74321;BMP280;62738;45.772;4.804;2023-02-01T15:49:50;101027.97;;;10.18
74321;BMP280;62738;45.772;4.804;2023-02-01T15:52:26;101017.25;;;9.96
74321;BMP280;62738;45.772;4.804;2023-02-01T15:55:02;101022.50;;;10.00
74321;BMP280;62738;45.772;4.804;2023-02-01T15:57:34;101031.28;;;10.17
74321;BMP280;62738;45.772;4.804;2023-02-01T16:00:17;101031.56;;;10.00
74321;BMP280;62738;45.772;4.804;2023-02-01T16:02:53;101036.59;;;9.83
74321;BMP280;62738;45.772;4.804;2023-02-01T16:05:38;101031.84;;;9.78
74321;BMP280;62738;45.772;4.804;2023-02-01T16:08:17;101037.88;;;9.82
74321;BMP280;62738;45.772;4.804;2023-02-01T16:10:48;101041.91;;;9.62
74321;BMP280;62738;45.772;4.804;2023-02-01T16:13:17;101052.53;;;9.58
74321;BMP280;62738;45.772;4.804;2023-02-01T16:15:44;101050.97;;;9.44
74321;BMP280;62738;45.772;4.804;2023-02-01T16:18:12;101054.63;;;9.33
74321;BMP280;62738;45.772;4.804;2023-02-01T16:20:43;101053.47;;;9.23
74321;BMP280;62738;45.772;4.804;2023-02-01T16:23:09;101071.16;;;9.39
74321;BMP280;62738;45.772;4.804;2023-02-01T16:25:37;101070.22;;;9.12
74321;BMP280;62738;45.772;4.804;2023-02-01T16:28:04;101071.22;;;9.15
74321;BMP280;62738;45.772;4.804;2023-02-01T16:30:32;101076.31;;;9.29
74321;BMP280;62738;45.772;4.804;2023-02-01T16:33:00;101071.75;;;9.32
74321;BMP280;62738;45.772;4.804;2023-02-01T16:35:34;101073.88;;;9.20
74321;BMP280;62738;45.772;4.804;2023-02-01T16:38:15;101068.34;;;9.20